Time;durP1;ratioP1;P1;durP2;ratioP2;P2;SDS_P1;SDS_P2;PMS_P1;PMS_P2;Temp;Humidity;BMP_temperature;BMP_pressure;BME280_temperature;BME280_humidity;BME280_pressure;Samples;Min_cycle;Max_cycle;Signal;HPM_P1;HPM_P2
2022/05/23 00:01:27;;;;;;;3.97;1.48;;;;;;;11.28;68.31;100348.16;4991496;28;20124;-75
2022/05/23 00:03:53;;;;;;;4.82;1.50;;;;;;;11.33;67.52;100349.84;4991423;28;20083;-75
2022/05/23 00:06:21;;;;;;;5.07;1.60;;;;;;;11.42;66.76;100351.50;4991249;28;20065;-75
2022/05/23 00:08:49;;;;;;;3.92;1.35;;;;;;;11.50;67.14;100354.06;4990949;28;20449;-75
2022/05/23 00:11:16;;;;;;;3.42;1.33;;;;;;;11.54;66.40;100348.72;4991069;28;20835;-75
2022/05/23 00:13:42;;;;;;;4.80;1.52;;;;;;;11.59;65.97;100351.31;4965687;28;20046;-75
2022/05/23 00:16:08;;;;;;;5.65;1.42;;;;;;;11.57;66.07;100353.94;4994652;28;20034;-74
2022/05/23 00:18:34;;;;;;;6.50;1.90;;;;;;;11.43;67.54;100349.75;4994708;28;20073;-75
2022/05/23 00:20:59;;;;;;;3.50;1.50;;;;;;;11.43;66.39;100355.03;4994663;28;20072;-75
2022/05/23 00:23:24;;;;;;;3.78;1.23;;;;;;;11.43;66.97;100350.63;4991911;28;20107;-74
2022/05/23 00:25:52;;;;;;;3.85;1.27;;;;;;;11.41;66.88;100348.00;4994099;28;20061;-74
2022/05/23 00:28:17;;;;;;;4.72;1.65;;;;;;;11.43;66.95;100336.53;4994561;28;20469;-75
2022/05/23 00:30:43;;;;;;;6.45;1.55;;;;;;;11.38;66.55;100329.53;4994605;28;20100;-74
2022/05/23 00:35:56;;;;;;;4.25;1.63;;;;;;;11.24;67.86;100326.22;4994608;28;20057;-75
2022/05/23 00:38:22;;;;;;;5.85;2.00;;;;;;;11.18;68.55;100313.06;4994488;28;20038;-75
2022/05/23 00:43:13;;;;;;;3.80;1.63;;;;;;;11.17;68.78;100314.81;4994204;28;20513;-75
2022/05/23 00:43:41;;;;;;;3.47;1.70;;;;;;;11.21;67.78;100310.38;4974411;28;20077;-75
2022/05/23 00:46:06;;;;;;;2.85;1.40;;;;;;;11.27;67.48;100302.38;4976903;28;20066;-75
2022/05/23 00:48:32;;;;;;;5.78;1.50;;;;;;;11.27;67.56;100299.75;4976817;28;20089;-75
2022/05/23 00:51:03;;;;;;;3.40;1.52;;;;;;;11.26;68.36;100297.09;4994056;28;20042;-75
2022/05/23 00:53:54;;;;;;;4.55;1.42;;;;;;;11.24;68.25;100291.88;4990753;28;20038;-75
2022/05/23 00:56:23;;;;;;;4.57;1.48;;;;;;;11.25;67.60;100295.38;4974407;28;20035;-75
2022/05/23 00:58:53;;;;;;;4.57;1.80;;;;;;;11.23;67.94;100287.47;4976606;28;20568;-74
2022/05/23 01:01:22;;;;;;;5.35;1.48;;;;;;;11.21;68.29;100283.09;4976306;28;20134;-75
2022/05/23 01:03:47;;;;;;;4.65;1.60;;;;;;;11.16;68.03;100283.13;4975914;28;20551;-75
2022/05/23 01:06:13;;;;;;;3.30;1.35;;;;;;;11.13;67.97;100284.06;4976274;28;20037;-75
2022/05/23 01:08:41;;;;;;;8.20;2.00;;;;;;;11.10;68.20;100288.50;4976472;28;20037;-74
2022/05/23 01:11:09;;;;;;;4.40;1.73;;;;;;;11.11;68.12;100285.84;4993656;28;20030;-74
2022/05/23 01:13:35;;;;;;;6.65;1.80;;;;;;;11.07;68.33;100288.53;4972934;28;20042;-75
2022/05/23 01:16:00;;;;;;;6.30;1.80;;;;;;;11.03;68.48;100281.53;4993667;28;20133;-75
2022/05/23 01:18:29;;;;;;;4.28;1.85;;;;;;;10.99;68.13;100286.00;4976294;28;20117;-75
2022/05/23 01:20:58;;;;;;;6.20;2.05;;;;;;;11.00;68.00;100287.72;4975953;28;20050;-75
2022/05/23 01:23:41;;;;;;;5.30;1.55;;;;;;;10.96;68.47;100281.63;4989393;28;20039;-75
2022/05/23 01:26:21;;;;;;;5.47;1.70;;;;;;;10.95;68.28;100268.44;4973308;28;20031;-74
2022/05/23 01:28:51;;;;;;;4.60;1.92;;;;;;;10.96;68.49;100264.91;4993511;28;20030;-75
2022/05/23 01:31:36;;;;;;;3.60;1.85;;;;;;;10.93;68.29;100263.19;4973688;28;20062;-75
2022/05/23 01:34:10;;;;;;;3.45;1.65;;;;;;;10.94;68.20;100272.84;4976052;28;20034;-75
2022/05/23 01:36:46;;;;;;;4.45;2.13;;;;;;;10.93;68.60;100260.53;4975917;28;20045;-75
2022/05/23 01:39:11;;;;;;;6.13;2.03;;;;;;;10.92;68.55;100249.97;4967567;28;20034;-75
2022/05/23 01:41:38;;;;;;;5.60;2.00;;;;;;;10.89;68.30;100253.53;4975164;28;20038;-75
2022/05/23 01:44:04;;;;;;;4.40;1.70;;;;;;;10.88;68.57;100251.78;4975852;28;20096;-74
2022/05/23 01:46:33;;;;;;;5.20;1.60;;;;;;;10.86;69.10;100243.00;4989902;28;20033;-74
2022/05/23 01:49:21;;;;;;;5.47;2.17;;;;;;;10.84;69.19;100249.22;4989109;28;20046;-75
2022/05/23 01:51:46;;;;;;;2.53;1.48;;;;;;;10.80;69.03;100240.47;4975188;28;20089;-75
2022/05/23 01:54:14;;;;;;;3.38;1.67;;;;;;;10.79;69.21;100241.34;4975604;28;20026;-74
2022/05/23 01:56:41;;;;;;;4.60;1.58;;;;;;;10.77;69.30;100237.84;4975371;28;20034;-75
2022/05/23 02:01:55;;;;;;;5.60;1.77;;;;;;;10.75;69.45;100245.78;4971883;28;20031;-75
2022/05/23 02:04:37;;;;;;;4.38;2.05;;;;;;;10.73;69.51;100241.41;4989927;28;20402;-75
2022/05/23 02:07:05;;;;;;;6.18;1.80;;;;;;;10.74;68.99;100243.16;4992816;28;20034;-74
2022/05/23 02:09:34;;;;;;;4.80;1.77;;;;;;;10.71;69.21;100245.81;4953275;28;20113;-75
2022/05/23 02:12:25;;;;;;;3.20;1.52;;;;;;;10.67;69.80;100252.91;4987161;28;20541;-75
2022/05/23 02:14:53;;;;;;;3.97;1.80;;;;;;;10.65;69.12;100259.09;4973577;28;20519;-75
2022/05/23 02:17:41;;;;;;;5.68;1.85;;;;;;;10.62;70.09;100253.88;4987681;28;20068;-75
2022/05/23 02:20:08;;;;;;;3.17;1.80;;;;;;;10.61;69.74;100250.34;4975259;28;20570;-74
2022/05/23 02:22:34;;;;;;;7.35;2.05;;;;;;;10.55;69.75;100249.53;4974915;28;20592;-75
2022/05/23 02:25:16;;;;;;;4.97;1.63;;;;;;;10.51;70.16;100246.94;4974694;28;20030;-74
2022/05/23 02:27:41;;;;;;;5.57;1.50;;;;;;;10.47;70.32;100253.13;4974694;28;20042;-75
2022/05/23 02:30:07;;;;;;;6.68;1.77;;;;;;;10.41;70.20;100258.47;4974933;28;20408;-74
2022/05/23 02:32:33;;;;;;;4.60;2.20;;;;;;;10.37;70.77;100251.47;4974677;28;20041;-75
2022/05/23 02:35:04;;;;;;;3.28;1.77;;;;;;;10.35;70.28;100255.91;4974888;28;20441;-74
2022/05/23 02:37:30;;;;;;;4.20;2.10;;;;;;;10.30;70.95;100257.69;4973668;28;20045;-75
2022/05/23 02:39:57;;;;;;;4.93;2.17;;;;;;;10.21;70.90;100250.69;4974685;28;20041;-75
2022/05/23 02:42:23;;;;;;;3.28;1.70;;;;;;;10.15;71.04;100249.91;4974540;28;20416;-74
2022/05/23 02:44:48;;;;;;;4.22;2.05;;;;;;;10.05;71.81;100244.69;4974592;28;20134;-74
2022/05/23 02:47:20;;;;;;;4.60;2.13;;;;;;;9.94;72.05;100249.19;4958157;28;20062;-75
2022/05/23 02:49:47;;;;;;;5.75;2.47;;;;;;;9.94;72.70;100243.91;4974476;28;20034;-75
2022/05/23 02:52:22;;;;;;;9.07;3.90;;;;;;;9.97;72.75;100249.16;4970953;28;20514;-75
2022/05/23 02:55:04;;;;;;;7.40;3.47;;;;;;;9.98;73.03;100243.00;4974436;28;20125;-75
2022/05/23 02:57:30;;;;;;;6.40;3.03;;;;;;;9.97;73.04;100238.59;4970596;28;20034;-75
2022/05/23 02:59:56;;;;;;;7.43;2.83;;;;;;;9.84;74.85;100244.88;4974528;28;20034;-75
2022/05/23 03:05:07;;;;;;;8.00;2.95;;;;;;;9.68;75.54;100251.16;4972367;28;20026;-75
2022/05/23 03:07:32;;;;;;;9.45;4.30;;;;;;;9.71;75.65;100251.13;4974226;28;20061;-74
2022/05/23 03:10:04;;;;;;;8.30;4.47;;;;;;;9.77;75.18;100248.44;4991761;28;20031;-75
2022/05/23 03:12:30;;;;;;;6.63;3.80;;;;;;;9.73;75.52;100239.69;4973995;28;20038;-75
2022/05/23 03:14:56;;;;;;;5.53;3.10;;;;;;;9.66;76.19;100244.09;4973481;28;20038;-75
2022/05/23 03:17:21;;;;;;;7.63;3.33;;;;;;;9.64;76.51;100256.44;4950491;28;20042;-75
2022/05/23 03:19:47;;;;;;;8.27;3.05;;;;;;;9.65;75.78;100250.28;4974017;28;20037;-75
2022/05/23 03:27:44;;;;;;;4.50;2.30;;;;;;;9.49;77.27;100242.50;4969793;28;20041;-75
2022/05/23 03:30:15;;;;;;;6.45;2.63;;;;;;;9.53;77.36;100238.94;4970875;28;20030;-75
2022/05/23 03:32:50;;;;;;;6.72;3.55;;;;;;;9.62;77.28;100242.41;4972925;28;20030;-75
2022/05/23 03:35:15;;;;;;;6.65;3.15;;;;;;;9.72;76.93;100252.84;4972670;28;20425;-75
2022/05/23 03:37:42;;;;;;;4.60;3.17;;;;;;;9.73;77.11;100254.63;4984289;28;20523;-75
2022/05/23 03:40:08;;;;;;;8.27;2.65;;;;;;;9.79;76.23;100251.94;4986006;28;20042;-76
2022/05/23 03:42:37;;;;;;;6.18;2.85;;;;;;;9.79;76.18;100249.28;4952489;28;20122;-75
2022/05/23 03:45:05;;;;;;;5.25;2.33;;;;;;;9.82;76.31;100244.00;4971207;28;20117;-75
2022/05/23 03:47:40;;;;;;;4.68;2.60;;;;;;;9.85;75.77;100236.97;4988959;28;20030;-74
2022/05/23 03:50:11;;;;;;;5.90;3.13;;;;;;;9.96;75.65;100238.63;4990298;28;20168;-75
2022/05/23 03:52:37;;;;;;;7.90;3.35;;;;;;;10.06;75.54;100245.56;4977599;28;20118;-75
2022/05/23 03:55:03;;;;;;;8.40;4.47;;;;;;;10.17;75.36;100245.50;4976464;28;20093;-75
2022/05/23 03:57:29;;;;;;;6.95;3.95;;;;;;;10.26;74.98;100242.75;4995046;28;20039;-75
2022/05/23 03:59:55;;;;;;;6.03;4.30;;;;;;;10.36;74.65;100244.44;4977564;28;20026;-76
2022/05/23 04:02:21;;;;;;;6.35;3.85;;;;;;;10.46;74.28;100248.75;4977243;28;20421;-75
2022/05/23 04:04:47;;;;;;;11.20;4.72;;;;;;;10.53;74.19;100237.25;4974871;28;20059;-74
2022/05/23 04:07:33;;;;;;;5.60;3.63;;;;;;;10.54;74.84;100235.47;4994920;28;20459;-75
2022/05/23 04:10:14;;;;;;;5.60;3.30;;;;;;;10.64;74.17;100230.97;4974603;28;20030;-75
2022/05/23 04:12:39;;;;;;;6.90;3.65;;;;;;;10.75;73.37;100226.44;4991477;28;20034;-75
2022/05/23 04:15:06;;;;;;;6.55;4.00;;;;;;;10.87;72.84;100231.59;4977013;28;20109;-75
2022/05/23 04:17:32;;;;;;;6.20;4.25;;;;;;;10.96;72.92;100234.09;4975466;28;20697;-75
2022/05/23 04:19:58;;;;;;;5.97;3.53;;;;;;;11.07;72.94;100246.28;4988533;28;20030;-76
2022/05/23 04:22:24;;;;;;;9.25;4.30;;;;;;;11.20;72.72;100239.94;4976844;28;20121;-76
2022/05/23 04:25:05;;;;;;;23.65;13.85;;;;;;;11.38;72.00;100250.28;4971894;28;20398;-76
2022/05/23 04:27:30;;;;;;;11.20;6.35;;;;;;;11.52;71.58;100255.34;4969939;28;20030;-76
2022/05/23 04:29:55;;;;;;;9.45;5.03;;;;;;;11.64;71.07;100243.75;4974824;28;20034;-76
2022/05/23 04:35:18;;;;;;;6.07;3.25;;;;;;;11.91;70.61;100233.66;4988570;28;20092;-75
2022/05/23 04:37:48;;;;;;;4.93;2.83;;;;;;;12.00;70.59;100233.53;4974827;28;20031;-76
2022/05/23 04:40:23;;;;;;;8.63;3.47;;;;;;;12.10;70.04;100229.78;4974023;28;20504;-76
2022/05/23 04:42:48;;;;;;;7.53;3.05;;;;;;;12.20;69.85;100233.16;4968270;28;20401;-75
2022/05/23 04:45:15;;;;;;;5.45;3.30;;;;;;;12.30;69.95;100233.88;4988009;28;20034;-76
2022/05/23 04:50:33;;;;;;;6.78;3.65;;;;;;;12.45;69.38;100228.31;4973030;28;20033;-75
2022/05/23 04:53:04;;;;;;;8.68;4.25;;;;;;;12.52;69.31;100224.63;4976706;28;20034;-75
2022/05/23 04:55:37;;;;;;;9.35;5.25;;;;;;;12.58;69.07;100227.16;4981999;28;20038;-75
2022/05/23 04:58:03;;;;;;;13.05;6.50;;;;;;;12.65;68.63;100226.16;4972528;28;20042;-75
2022/05/23 05:00:30;;;;;;;8.48;5.15;;;;;;;12.69;68.55;100214.59;4972122;28;20033;-75
2022/05/23 05:03:00;;;;;;;6.18;4.18;;;;;;;12.65;68.78;100212.91;4988953;28;20057;-76
2022/05/23 05:05:39;;;;;;;8.38;5.75;;;;;;;12.70;68.92;100208.38;4959384;28;20049;-76
2022/05/23 05:08:04;;;;;;;5.82;4.10;;;;;;;12.76;68.31;100201.22;4977920;28;20026;-76
2022/05/23 05:10:30;;;;;;;5.47;3.03;;;;;;;12.77;67.98;100195.91;4975727;28;20497;-76
2022/05/23 05:12:58;;;;;;;7.35;3.45;;;;;;;12.83;68.04;100193.13;4971164;28;20031;-76
2022/05/23 05:15:26;;;;;;;8.45;3.85;;;;;;;12.95;67.95;100186.69;4984108;28;20038;-76
2022/05/23 05:17:52;;;;;;;5.43;3.22;;;;;;;13.02;68.11;100188.31;4974542;28;20043;-76
2022/05/23 05:20:19;;;;;;;6.22;3.10;;;;;;;13.13;67.79;100186.31;4975794;28;20031;-75
2022/05/23 05:22:59;;;;;;;7.03;3.83;;;;;;;13.18;67.93;100187.97;4991012;28;20037;-75
2022/05/23 05:25:40;;;;;;;8.60;3.70;;;;;;;13.26;67.70;100175.44;4974780;28;20516;-76
2022/05/23 05:28:08;;;;;;;5.05;3.00;;;;;;;13.32;67.18;100173.53;4974635;28;20022;-76
2022/05/23 05:30:39;;;;;;;3.88;2.20;;;;;;;13.41;67.37;100174.22;4975465;28;20061;-75
2022/05/23 05:33:11;;;;;;;5.68;2.58;;;;;;;13.45;67.28;100173.25;4991959;28;20105;-76
2022/05/23 05:35:40;;;;;;;5.20;2.20;;;;;;;13.51;66.48;100171.31;4972534;28;20034;-76
2022/05/23 05:38:13;;;;;;;5.03;1.92;;;;;;;13.66;66.78;100158.59;4993017;28;20030;-75
2022/05/23 05:40:41;;;;;;;6.10;2.20;;;;;;;13.82;65.84;100165.25;4975938;28;20066;-76
2022/05/23 05:43:16;;;;;;;7.80;3.22;;;;;;;13.97;65.50;100154.25;4973514;28;20933;-76
2022/05/23 05:45:59;;;;;;;5.50;3.03;;;;;;;14.18;64.48;100154.63;4975344;28;20397;-76
2022/05/23 05:48:47;;;;;;;5.38;2.13;;;;;;;14.39;63.50;100151.38;4973132;28;20034;-76
2022/05/23 05:51:16;;;;;;;5.70;2.40;;;;;;;14.62;63.16;100145.44;4975295;28;20038;-76
2022/05/23 05:54:06;;;;;;;5.65;2.85;;;;;;;14.83;62.38;100145.72;4975459;28;20133;-76
2022/05/23 05:56:39;;;;;;;4.68;2.08;;;;;;;14.99;61.80;100147.00;4973804;28;20030;-76
2022/05/23 05:59:06;;;;;;;3.45;1.83;;;;;;;15.23;61.26;100145.38;4973288;28;20030;-76
2022/05/23 06:01:36;;;;;;;5.97;2.42;;;;;;;15.43;60.54;100143.84;4984727;28;20081;-76
2022/05/23 06:04:02;;;;;;;5.28;2.75;;;;;;;15.66;59.68;100149.28;4969362;28;20034;-76
2022/05/23 06:12:14;;;;;;;3.95;1.90;;;;;;;16.33;57.28;100123.97;4973246;28;20034;-76
2022/05/23 06:14:41;;;;;;;3.47;2.00;;;;;;;16.51;56.90;100120.63;4972516;28;20034;-75
2022/05/23 06:17:08;;;;;;;4.97;2.00;;;;;;;16.75;56.43;100123.28;4972855;28;20085;-76
2022/05/23 06:19:41;;;;;;;3.92;1.60;;;;;;;17.00;55.65;100115.22;4969894;28;20386;-76
2022/05/23 06:22:16;;;;;;;4.53;2.20;;;;;;;17.23;55.41;100111.66;4988103;28;20468;-76
2022/05/23 06:25:02;;;;;;;6.00;2.58;;;;;;;17.46;54.92;100103.59;4989777;28;20027;-76
2022/05/23 06:27:28;;;;;;;6.72;2.30;;;;;;;17.69;54.02;100109.78;4973782;28;20113;-76
2022/05/23 06:30:07;;;;;;;5.20;1.65;;;;;;;17.83;52.71;100096.72;4976015;28;20463;-75
2022/05/23 06:32:47;;;;;;;;;;;;;;;17.85;51.52;100097.53;4973745;28;20030;-76
2022/05/23 06:35:17;;;;;;;4.93;2.20;;;;;;;17.98;52.24;100089.88;4970486;28;19920;-76
2022/05/23 06:37:46;;;;;;;4.82;2.30;;;;;;;18.17;51.72;100089.91;4974501;28;20026;-76
2022/05/23 06:40:40;;;;;;;7.72;3.67;;;;;;;18.41;51.23;100085.28;4982531;28;20042;-76
2022/05/23 06:43:36;;;;;;;4.78;2.55;;;;;;;18.72;50.15;100081.19;4989277;28;20046;-75
2022/05/23 06:46:21;;;;;;;4.82;1.77;;;;;;;18.88;49.45;100068.00;4990133;28;20340;-76
2022/05/23 06:49:22;;;;;;;5.25;1.80;;;;;;;19.17;49.29;100077.28;4990459;28;20050;-76
2022/05/23 06:52:03;;;;;;;3.50;1.67;;;;;;;19.33;48.41;100074.72;4990943;28;20125;-76
2022/05/23 06:54:42;;;;;;;5.70;2.50;;;;;;;19.45;47.97;100069.63;4975539;28;20378;-76
2022/05/23 06:57:12;;;;;;;5.60;2.05;;;;;;;19.57;47.60;100073.50;4970912;28;20089;-76
2022/05/23 06:59:38;;;;;;;4.80;1.95;;;;;;;19.59;47.24;100076.94;4989800;28;20027;-76
2022/05/23 07:02:07;;;;;;;5.03;2.90;;;;;;;19.79;47.25;100073.28;4966625;28;20093;-76
2022/05/23 07:14:03;;;;;;;4.05;1.73;;;;;;;20.19;45.54;100079.22;4972126;28;20038;-76
2022/05/23 07:16:31;;;;;;;4.43;1.90;;;;;;;20.42;45.64;100083.38;4973995;28;20485;-76
2022/05/23 07:18:56;;;;;;;3.67;1.65;;;;;;;20.48;44.75;100085.69;4958132;28;20042;-76
2022/05/23 07:21:32;;;;;;;3.15;1.70;;;;;;;20.63;44.78;100080.50;4964349;28;20076;-76
2022/05/23 07:24:11;;;;;;;3.97;1.45;;;;;;;20.75;44.62;100080.69;4994233;28;20030;-76
2022/05/23 07:27:03;;;;;;;3.40;1.60;;;;;;;20.95;44.08;100079.56;4992534;28;20036;-76
2022/05/23 07:29:29;;;;;;;5.97;1.73;;;;;;;21.04;43.56;100072.84;4977734;28;20405;-76
2022/05/23 07:31:58;;;;;;;5.25;1.40;;;;;;;21.14;43.56;100075.84;4976009;28;20030;-76
2022/05/23 07:34:25;;;;;;;6.22;2.10;;;;;;;21.39;43.13;100069.97;4976698;28;20105;-76
2022/05/23 07:36:51;;;;;;;5.82;3.60;;;;;;;21.64;42.94;100054.13;4992010;28;20117;-76
2022/05/23 07:39:16;;;;;;;4.97;1.70;;;;;;;21.83;41.88;100048.53;4992437;28;20037;-75
2022/05/23 07:41:46;;;;;;;3.88;1.40;;;;;;;21.68;40.91;100041.38;4974151;28;20035;-75
2022/05/23 07:44:15;;;;;;;3.20;1.20;;;;;;;21.76;41.24;100038.25;4992276;28;20058;-76
2022/05/23 07:46:43;;;;;;;3.83;1.48;;;;;;;21.97;40.51;100031.56;4976199;28;20121;-76
2022/05/23 07:49:09;;;;;;;5.10;1.92;;;;;;;22.10;40.40;100029.84;4973799;28;20062;-76
2022/05/23 07:51:37;;;;;;;5.50;1.75;;;;;;;22.28;39.82;100038.63;4974132;28;20037;-76
2022/05/23 08:02:43;;;;;;;3.25;1.20;;;;;;;22.51;37.93;100037.16;4994333;28;20578;-76
2022/05/23 08:05:15;;;;;;;3.33;1.25;;;;;;;22.71;38.67;100024.25;4985138;28;20080;-75
2022/05/23 08:07:45;;;;;;;3.13;1.33;;;;;;;22.59;36.87;100034.00;4977124;28;20038;-76
2022/05/23 08:10:11;;;;;;;3.97;1.42;;;;;;;22.74;37.63;100034.81;4977307;28;20030;-76
2022/05/23 08:12:39;;;;;;;7.88;2.95;;;;;;;22.90;37.30;100042.78;4973516;28;20030;-76
2022/05/23 08:15:12;;;;;;;15.13;4.38;;;;;;;23.06;37.42;100027.38;4976603;28;20497;-76
2022/05/23 08:17:40;;;;;;;6.97;3.17;;;;;;;23.12;36.74;100018.88;4991418;28;20508;-76
2022/05/23 08:20:21;;;;;;;15.15;3.83;;;;;;;23.28;36.77;100009.78;4968614;28;20038;-77
2022/05/23 08:22:52;;;;;;;4.82;2.40;;;;;;;23.34;36.28;100004.88;4991703;28;20091;-76
2022/05/23 08:25:26;;;;;;;4.68;2.47;;;;;;;23.47;36.17;100004.00;4991754;28;20038;-76
2022/05/23 08:27:55;;;;;;;5.15;1.70;;;;;;;23.68;35.91;100007.94;4975312;28;20639;-76
2022/05/23 08:30:21;;;;;;;3.78;1.38;;;;;;;23.82;35.22;100001.63;4978752;28;20113;-76
2022/05/23 08:32:47;;;;;;;3.80;1.60;;;;;;;23.84;35.11;99987.09;4991627;28;20034;-76
2022/05/23 08:35:17;;;;;;;5.20;1.27;;;;;;;23.98;35.00;99988.81;4973938;28;20048;-75
2022/05/23 08:37:52;;;;;;;8.73;2.97;;;;;;;24.06;35.00;99986.41;4976754;28;20386;-76
2022/05/23 08:40:52;;;;;;;5.80;1.20;;;;;;;23.96;34.48;99968.31;4974279;28;20122;-75
2022/05/23 08:43:26;;;;;;;5.85;1.30;;;;;;;23.96;34.08;99974.56;4973670;28;20056;-76
2022/05/23 08:45:56;;;;;;;2.40;1.10;;;;;;;23.94;34.23;99968.41;4980296;28;20034;-76
2022/05/23 08:48:48;;;;;;;4.15;1.13;;;;;;;23.99;34.02;99974.34;4992734;28;20544;-76
2022/05/23 08:51:35;;;;;;;3.47;1.30;;;;;;;24.13;34.14;99973.38;4973814;28;20058;-76
2022/05/23 08:54:18;;;;;;;2.72;1.05;;;;;;;24.30;33.56;99964.06;4976779;28;20559;-76
2022/05/23 08:57:06;;;;;;;4.55;1.15;;;;;;;24.23;33.63;99966.38;4989635;28;20065;-76
2022/05/23 08:59:42;;;;;;;4.65;1.20;;;;;;;24.28;34.01;99966.00;4975825;28;20030;-76
2022/05/23 09:02:17;;;;;;;4.38;1.30;;;;;;;24.17;34.33;99966.78;4973565;28;20034;-76
2022/05/23 09:04:52;;;;;;;3.67;1.70;;;;;;;24.17;34.05;99965.94;4976253;28;20113;-75
2022/05/23 09:07:36;;;;;;;7.00;2.03;;;;;;;24.05;34.90;99963.16;4976447;28;20030;-76
2022/05/23 09:10:08;;;;;;;5.65;2.33;;;;;;;24.12;35.22;99965.41;4990053;28;20042;-76
2022/05/23 09:12:34;;;;;;;4.63;2.10;;;;;;;24.05;35.27;99968.53;4974952;28;20111;-75
2022/05/23 09:14:59;;;;;;;5.10;1.38;;;;;;;24.00;35.12;99969.84;4993596;28;20046;-76
2022/05/23 09:17:34;;;;;;;5.07;1.38;;;;;;;24.02;34.73;99957.94;4976135;28;20117;-76
2022/05/23 09:20:08;;;;;;;4.55;1.20;;;;;;;23.98;34.65;99950.22;4990519;28;20070;-76
2022/05/23 09:22:43;;;;;;;3.72;1.20;;;;;;;24.10;35.01;99954.69;4993348;28;20057;-76
2022/05/23 09:25:11;;;;;;;5.28;1.38;;;;;;;24.24;34.92;99956.44;4990143;28;20114;-76
2022/05/23 09:27:40;;;;;;;2.38;1.08;;;;;;;24.36;34.57;99949.28;4989560;28;20035;-76
2022/05/23 09:30:16;;;;;;;3.92;1.17;;;;;;;24.51;34.88;99945.50;4988219;28;20057;-78
2022/05/23 09:32:52;;;;;;;3.72;1.50;;;;;;;24.54;34.07;99926.38;4991118;28;20042;-76
2022/05/23 09:35:25;;;;;;;2.72;1.10;;;;;;;24.64;32.94;99926.56;4993360;28;20088;-76
2022/05/23 09:38:16;;;;;;;3.38;1.00;;;;;;;24.69;32.88;99935.19;4972514;28;20065;-75
2022/05/23 09:40:56;;;;;;;3.13;1.02;;;;;;;24.84;33.16;99927.78;4974441;28;20088;-74
2022/05/23 09:49:11;;;;;;;2.83;1.08;;;;;;;24.67;31.47;99902.91;4992817;28;20092;-76
2022/05/23 09:52:15;;;;;;;3.42;0.80;;;;;;;24.35;31.38;99899.88;4992317;28;20083;-76
2022/05/23 09:54:52;;;;;;;5.35;1.00;;;;;;;24.24;31.86;99894.41;4973273;28;20034;-76
2022/05/23 09:57:36;;;;;;;5.13;2.85;;;;;;;24.28;32.28;99895.91;4990450;28;20042;-76
2022/05/23 10:00:26;;;;;;;8.77;2.38;;;;;;;24.01;32.15;99890.69;4990358;28;20053;-76
2022/05/23 10:02:57;;;;;;;6.80;1.65;;;;;;;24.02;31.98;99892.41;4974308;28;20049;-75
2022/05/23 10:05:26;;;;;;;5.47;1.67;;;;;;;24.12;31.69;99868.34;4992925;28;20096;-76
2022/05/23 10:07:55;;;;;;;3.25;1.30;;;;;;;24.24;31.78;99873.69;4992791;28;20197;-75
2022/05/23 10:10:23;;;;;;;3.08;0.98;;;;;;;24.47;32.06;99855.84;4992788;28;20038;-76
2022/05/23 10:13:24;;;;;;;9.48;1.30;;;;;;;24.63;32.10;99852.00;4974913;28;20469;-76
2022/05/23 10:15:58;;;;;;;2.63;1.02;;;;;;;24.59;31.56;99848.66;4991911;28;20515;-76
2022/05/23 10:18:32;;;;;;;4.65;1.38;;;;;;;24.57;31.69;99849.75;4990662;28;20058;-76
2022/05/23 10:21:00;;;;;;;3.25;1.10;;;;;;;24.79;31.74;99841.78;4988311;28;20034;-76
2022/05/23 10:23:29;;;;;;;5.57;3.40;;;;;;;24.87;31.67;99836.63;4989400;28;20088;-76
2022/05/23 10:26:25;;;;;;;9.88;1.60;;;;;;;24.75;30.95;99829.47;4971582;28;20027;-76
2022/05/23 10:29:07;;;;;;;5.50;2.60;;;;;;;24.78;31.32;99826.53;4972861;28;20429;-76
2022/05/23 10:31:48;;;;;;;5.60;1.90;;;;;;;24.93;31.45;99822.66;4972476;28;20030;-76
2022/05/23 10:34:43;;;;;;;3.55;1.40;;;;;;;25.03;31.30;99812.03;4984879;28;20049;-76
2022/05/23 10:37:18;;;;;;;2.55;1.13;;;;;;;25.27;31.20;99817.38;4965211;28;20056;-76
2022/05/23 10:42:46;;;;;;;3.78;1.75;;;;;;;25.52;31.23;99808.19;4984439;28;20034;-75
2022/05/23 10:45:21;;;;;;;2.83;1.10;;;;;;;25.63;30.83;99807.31;4968122;28;20058;-76
2022/05/23 10:48:10;;;;;;;4.72;1.23;;;;;;;25.72;30.79;99800.31;4974554;28;20121;-76
2022/05/23 10:51:12;;;;;;;4.70;1.10;;;;;;;25.69;30.48;99800.56;4973149;28;20048;-76
2022/05/23 10:53:49;;;;;;;4.07;1.40;;;;;;;25.44;30.56;99786.34;4989006;28;20030;-76
2022/05/23 10:56:20;;;;;;;6.38;1.20;;;;;;;25.40;31.06;99790.25;4989277;28;20439;-77
2022/05/23 10:58:58;;;;;;;4.00;1.65;;;;;;;25.51;30.93;99786.69;4991230;28;20062;-77
2022/05/23 11:01:44;;;;;;;3.28;1.60;;;;;;;25.62;30.62;99778.56;4991113;28;20050;-78
2022/05/23 11:04:50;;;;;;;3.97;2.13;;;;;;;25.68;30.99;99758.31;4991284;28;20046;-78
2022/05/23 11:07:21;;;;;;;4.47;1.75;;;;;;;25.80;31.29;99760.84;4948142;28;20457;-77
2022/05/23 11:10:06;;;;;;;6.72;2.60;;;;;;;25.97;30.87;99750.56;4974403;28;20039;-77
2022/05/23 11:13:01;;;;;;;4.70;2.03;;;;;;;26.16;30.88;99760.69;4989859;28;20049;-77
2022/05/23 11:16:02;;;;;;;4.40;1.70;;;;;;;26.34;29.67;99753.75;4990461;28;20042;-77
2022/05/23 11:18:45;;;;;;;4.53;2.38;;;;;;;26.68;29.82;99745.50;4971335;28;20069;-78
2022/05/23 11:21:18;;;;;;;5.47;1.95;;;;;;;26.90;29.82;99747.19;4974619;28;20120;-77
2022/05/23 11:23:54;;;;;;;3.35;1.40;;;;;;;26.95;29.06;99735.97;4990247;28;20061;-78
2022/05/23 11:26:26;;;;;;;3.33;1.90;;;;;;;26.94;29.40;99727.00;4988567;28;20042;-78
2022/05/23 11:34:49;;;;;;;13.48;4.85;;;;;;;26.73;28.59;99713.47;4990811;28;20042;-77
2022/05/23 11:39:53;;;;;;;9.20;5.93;;;;;;;27.21;29.34;99712.03;4991951;28;20065;-78
2022/05/23 11:42:24;;;;;;;6.93;3.50;;;;;;;27.17;28.27;99707.84;4972703;28;20121;-78
2022/05/23 11:44:49;;;;;;;5.57;2.67;;;;;;;26.80;28.50;99713.78;4992332;28;20117;-77
2022/05/23 11:47:21;;;;;;;3.88;1.63;;;;;;;26.84;29.00;99709.84;4992331;28;20093;-77
2022/05/23 11:49:48;;;;;;;9.10;1.60;;;;;;;26.92;28.87;99710.03;4992269;28;20046;-77
2022/05/23 11:52:29;;;;;;;5.57;3.15;;;;;;;27.11;28.82;99696.56;4991973;28;20045;-78
2022/05/23 11:54:55;;;;;;;4.03;1.65;;;;;;;27.03;28.94;99696.38;4990598;28;20489;-78
2022/05/23 11:57:38;;;;;;;6.30;2.08;;;;;;;26.96;29.06;99694.34;4989449;28;20042;-78
2022/05/23 12:00:25;;;;;;;4.68;2.45;;;;;;;27.16;28.90;99693.47;4989998;28;20045;-77
2022/05/23 12:03:13;;;;;;;5.32;2.90;;;;;;;27.60;28.98;99685.09;4989788;28;20571;-77
2022/05/23 12:05:41;;;;;;;5.00;2.13;;;;;;;27.45;28.10;99684.59;4989554;28;20101;-78
2022/05/23 12:08:28;;;;;;;5.82;2.00;;;;;;;27.53;28.08;99687.47;4992229;28;20126;-78
2022/05/23 12:10:58;;;;;;;3.50;1.92;;;;;;;27.40;28.54;99679.59;4973670;28;20614;-77
2022/05/23 12:13:48;;;;;;;9.13;2.10;;;;;;;27.28;28.79;99678.88;4961605;28;20038;-78
2022/05/23 12:16:30;;;;;;;5.80;2.33;;;;;;;27.60;28.48;99685.09;4974004;28;20049;-78
2022/05/23 12:19:12;;;;;;;6.65;1.80;;;;;;;28.30;28.33;99694.03;4995818;28;20034;-78
2022/05/23 12:21:43;;;;;;;3.58;1.55;;;;;;;28.02;27.87;99679.47;4993462;28;20042;-78
2022/05/23 12:24:23;;;;;;;6.38;3.28;;;;;;;28.16;27.87;99681.72;4971062;28;20030;-77
2022/05/23 12:26:55;;;;;;;5.20;2.87;;;;;;;28.20;27.57;99680.47;4993218;28;20038;-78
2022/05/23 12:29:23;;;;;;;4.38;2.83;;;;;;;28.12;27.98;99680.31;4995950;28;20108;-78
2022/05/23 12:32:04;;;;;;;4.80;1.80;;;;;;;28.06;27.77;99684.47;4991540;28;20023;-78
2022/05/23 12:34:32;;;;;;;6.95;2.33;;;;;;;28.16;28.41;99681.72;4995541;28;20133;-78
2022/05/23 12:36:58;;;;;;;5.10;1.90;;;;;;;28.14;27.71;99675.63;4995586;28;20113;-78
2022/05/23 12:39:40;;;;;;;5.25;2.90;;;;;;;28.62;27.34;99678.28;4961660;28;20041;-78
2022/05/23 12:42:13;;;;;;;7.05;2.75;;;;;;;29.15;27.57;99671.44;4993822;28;20032;-78
2022/05/23 12:45:04;;;;;;;4.45;2.20;;;;;;;29.52;25.90;99664.25;4995574;28;20046;-78
2022/05/23 12:48:00;;;;;;;5.50;2.30;;;;;;;30.05;25.82;99664.34;4994081;28;20054;-78
2022/05/23 12:50:47;;;;;;;5.57;2.15;;;;;;;30.30;25.20;99661.84;4976929;28;20092;-78
2022/05/23 12:53:35;;;;;;;11.32;2.42;;;;;;;30.28;25.42;99663.88;4971417;28;20046;-78
2022/05/23 12:56:19;;;;;;;5.57;2.20;;;;;;;30.51;25.33;99664.22;4994362;28;20046;-78
2022/05/23 12:58:44;;;;;;;6.15;2.38;;;;;;;30.72;25.00;99661.13;4988484;28;20078;-78